Time;durP1;ratioP1;P1;durP2;ratioP2;P2;SDS_P1;SDS_P2;PMS_P1;PMS_P2;Temp;Humidity;BMP_temperature;BMP_pressure;BME280_temperature;BME280_humidity;BME280_pressure;Samples;Min_cycle;Max_cycle;Signal;HPM_P1;HPM_P2
2022/11/16 00:01:07;;;;;;;8.90;7.62;;;;;;;14.80;50.91;101268.89;1760745;80;21026;-58
2022/11/16 00:03:35;;;;;;;10.35;7.22;;;;;;;14.51;51.47;101276.31;1719956;82;21074;-58
2022/11/16 00:06:04;;;;;;;8.58;7.33;;;;;;;14.45;51.63;101273.87;1708356;82;21030;-58
2022/11/16 00:08:34;;;;;;;8.85;7.53;;;;;;;14.40;51.79;101267.94;1721029;82;21023;-58
2022/11/16 00:11:10;;;;;;;10.88;7.72;;;;;;;14.36;52.01;101267.14;1715719;82;21094;-58
2022/11/16 00:13:39;;;;;;;8.45;7.30;;;;;;;14.35;52.23;101256.73;1672785;84;21536;-58
2022/11/16 00:16:06;;;;;;;8.93;6.72;;;;;;;14.34;52.37;101262.41;1667280;84;21091;-58
2022/11/16 00:18:33;;;;;;;8.15;6.75;;;;;;;14.35;52.55;101256.73;1670962;84;21051;-58
2022/11/16 00:21:05;;;;;;;6.95;6.25;;;;;;;14.33;52.71;101251.55;1668409;83;21069;-58
2022/11/16 00:23:37;;;;;;;7.90;6.70;;;;;;;14.37;52.75;101253.17;1676273;83;21129;-58
2022/11/16 00:26:08;;;;;;;7.65;6.45;;;;;;;14.39;52.75;101248.74;1665838;83;21074;-58
2022/11/16 00:28:37;;;;;;;8.23;7.17;;;;;;;14.43;52.78;101251.67;1680962;83;21038;-58
2022/11/16 00:31:06;;;;;;;7.08;5.90;;;;;;;14.43;52.77;101250.37;1675148;84;21115;-58
2022/11/16 00:33:33;;;;;;;6.67;5.65;;;;;;;14.46;52.67;101252.91;1674906;83;21043;-58
2022/11/16 00:36:01;;;;;;;8.60;5.53;;;;;;;14.45;52.62;101244.63;1674721;84;21064;-58
2022/11/16 00:38:28;;;;;;;7.65;5.60;;;;;;;14.46;52.62;101247.67;1671794;85;21048;-58
2022/11/16 00:40:55;;;;;;;6.92;5.78;;;;;;;14.45;52.62;101240.70;1663893;84;21048;-58
2022/11/16 00:43:22;;;;;;;6.42;5.60;;;;;;;14.45;52.68;101236.78;1659254;84;21047;-58
2022/11/16 00:45:49;;;;;;;6.37;5.47;;;;;;;14.46;52.76;101229.34;1659810;84;21107;-58
2022/11/16 00:48:15;;;;;;;8.58;5.80;;;;;;;14.47;52.74;101229.73;1666045;84;21032;-58
2022/11/16 00:50:44;;;;;;;7.00;6.12;;;;;;;14.48;52.79;101224.92;1670174;84;21633;-58
2022/11/16 00:53:13;;;;;;;7.40;6.50;;;;;;;14.51;52.81;101212.16;1668101;83;21071;-58
2022/11/16 00:55:43;;;;;;;6.70;6.10;;;;;;;14.54;52.83;101201.16;1656250;84;21095;-58
2022/11/16 00:58:10;;;;;;;7.72;6.15;;;;;;;14.57;52.80;101200.19;1682642;83;21158;-58
2022/11/16 01:00:40;;;;;;;7.53;5.78;;;;;;;14.58;52.77;101193.61;1699896;82;21034;-59
2022/11/16 01:03:07;;;;;;;8.43;6.80;;;;;;;14.57;52.74;101198.43;1714782;82;21006;-58
2022/11/16 01:05:33;;;;;;;7.70;6.25;;;;;;;14.56;52.85;101192.80;1728206;82;21613;-58
2022/11/16 01:08:00;;;;;;;6.90;5.72;;;;;;;14.55;52.95;101195.00;1734936;82;21022;-58
2022/11/16 01:10:27;;;;;;;6.97;6.17;;;;;;;14.55;53.04;101189.77;1743302;80;21538;-58
2022/11/16 01:12:55;;;;;;;6.75;5.53;;;;;;;14.55;53.14;101183.22;1765391;80;20998;-58
2022/11/16 01:15:23;;;;;;;7.15;6.40;;;;;;;14.55;53.16;101183.22;1751630;80;21046;-59
2022/11/16 01:17:52;;;;;;;9.20;7.28;;;;;;;14.54;53.20;101185.45;1755438;80;21093;-58
2022/11/16 01:20:21;;;;;;;8.43;6.95;;;;;;;14.55;53.23;101189.77;1754287;80;21034;-58
2022/11/16 01:22:48;;;;;;;7.87;6.58;;;;;;;14.59;53.18;101180.91;1755056;80;21400;-58
2022/11/16 01:25:15;;;;;;;7.65;5.78;;;;;;;14.60;53.07;101185.25;1767622;80;21007;-59
2022/11/16 01:27:42;;;;;;;10.40;6.17;;;;;;;14.61;53.01;101180.41;1759373;80;21067;-58
2022/11/16 01:30:13;;;;;;;7.50;6.17;;;;;;;14.62;52.86;101179.52;1753938;80;21065;-58
2022/11/16 01:32:41;;;;;;;6.75;5.62;;;;;;;14.60;52.75;101172.16;1755824;80;21025;-58
2022/11/16 12:49:23;;;;;;;31.52;20.97;;;;;;;13.71;55.98;100554.17;1753878;80;21035;-59
2022/11/16 12:52:20;;;;;;;33.48;21.57;;;;;;;13.79;55.54;100558.66;1749734;80;21014;-59
2022/11/16 12:55:08;;;;;;;29.15;19.52;;;;;;;13.87;55.13;100563.14;1761076;80;21022;-59
2022/11/16 12:58:07;;;;;;;32.13;20.37;;;;;;;13.94;54.85;100553.30;1723300;81;21033;-59
2022/11/16 13:00:52;;;;;;;37.67;26.80;;;;;;;14.01;54.50;100554.78;1734620;81;21168;-59
2022/11/16 13:03:32;;;;;;;34.18;21.37;;;;;;;14.05;54.28;100548.52;1665839;85;21534;-59
2022/11/16 13:06:06;;;;;;;34.07;21.40;;;;;;;14.13;54.16;100549.92;1649153;85;21096;-59
2022/11/16 13:08:43;;;;;;;28.85;20.30;;;;;;;14.20;53.97;100548.75;1633201;86;21152;-59
2022/11/16 13:11:26;;;;;;;29.95;19.75;;;;;;;14.26;53.69;100547.20;1539809;92;21093;-59
2022/11/16 13:14:01;;;;;;;28.95;20.02;;;;;;;14.31;53.29;100549.22;1538406;91;21123;-59
2022/11/16 13:16:28;;;;;;;30.92;19.92;;;;;;;14.31;53.03;100542.67;1534851;92;21068;-59
2022/11/16 13:18:55;;;;;;;29.00;19.15;;;;;;;14.29;53.01;100544.95;1538953;91;21132;-59
2022/11/16 13:21:40;;;;;;;27.13;18.55;;;;;;;14.26;52.97;100541.96;1532274;92;21178;-59
2022/11/16 13:24:40;;;;;;;33.00;21.23;;;;;;;14.24;53.01;100545.09;1544356;91;21101;-59
2022/11/16 13:27:31;;;;;;;32.88;21.73;;;;;;;14.24;52.96;100543.79;1543108;92;21673;-59
2022/11/16 13:30:15;;;;;;;31.97;20.85;;;;;;;14.25;52.95;100541.58;1508485;93;21094;-59
2022/11/16 13:33:14;;;;;;;30.75;20.50;;;;;;;14.25;52.88;100545.51;1509758;93;21205;-59
2022/11/16 13:35:41;;;;;;;32.80;20.35;;;;;;;14.25;52.89;100545.51;1516898;92;21667;-59
2022/11/16 13:38:12;;;;;;;29.18;19.45;;;;;;;14.23;52.82;100544.72;1527245;92;21099;-59
2022/11/16 13:40:39;;;;;;;30.62;21.27;;;;;;;14.23;52.81;100543.41;1548361;90;21565;-59
2022/11/16 13:43:12;;;;;;;29.52;19.12;;;;;;;14.48;52.10;100540.23;1563580;89;21086;-59
2022/11/16 13:45:53;;;;;;;29.42;19.73;;;;;;;14.49;51.88;100534.07;1570529;89;21577;-59
2022/11/16 13:48:32;;;;;;;24.40;18.57;;;;;;;14.48;51.91;100536.31;1559535;91;21078;-59
2022/11/16 13:51:04;;;;;;;29.27;19.25;;;;;;;14.47;51.90;100533.28;1560640;90;21030;-59
2022/11/16 13:53:38;;;;;;;29.07;19.50;;;;;;;14.46;51.83;100532.91;1560799;90;21142;-59
2022/11/16 13:56:07;;;;;;;25.57;17.52;;;;;;;14.46;51.79;100534.21;1540920;92;21140;-58
2022/11/16 13:58:35;;;;;;;24.37;17.77;;;;;;;14.44;51.81;100534.73;1534880;92;21112;-59
2022/11/16 14:01:09;;;;;;;23.90;17.82;;;;;;;14.43;51.82;100529.09;1520580;92;21073;-57
2022/11/16 14:03:38;;;;;;;26.57;18.42;;;;;;;14.45;51.82;100532.94;1492367;95;21600;-58
2022/11/16 14:06:21;;;;;;;29.77;18.82;;;;;;;14.44;51.63;100532.11;1467118;97;21573;-58
2022/11/16 14:08:58;;;;;;;26.90;18.45;;;;;;;14.40;51.67;100526.61;1446348;97;21174;-59
2022/11/16 14:11:31;;;;;;;27.85;18.17;;;;;;;14.36;51.73;100527.63;1491532;95;21119;-57
2022/11/16 14:14:04;;;;;;;24.37;17.17;;;;;;;14.36;51.77;100525.00;1496836;95;21082;-59
2022/11/16 14:16:33;;;;;;;;;;;;;;;14.34;51.86;100524.21;1441893;97;21112;-59
2022/11/16 14:19:01;;;;;;;30.43;19.62;;;;;;;14.32;51.84;100518.67;1461585;97;20163;-59
2022/11/16 14:21:49;;;;;;;27.50;18.98;;;;;;;14.28;51.92;100515.30;1444997;98;21135;-59
2022/11/16 14:24:36;;;;;;;28.50;19.00;;;;;;;14.28;52.01;100512.69;1464844;97;21099;-59
2022/11/16 14:27:30;;;;;;;25.52;18.40;;;;;;;14.28;51.89;100517.92;1465946;97;21142;-59
2022/11/16 14:30:24;;;;;;;29.72;18.87;;;;;;;14.30;51.73;100516.09;1468953;97;21638;-59
2022/11/16 14:32:52;;;;;;;28.87;18.75;;;;;;;14.31;51.72;100517.81;1448374;98;21099;-57
2022/11/16 14:35:37;;;;;;;25.72;16.97;;;;;;;14.30;51.65;100518.71;1438720;99;22531;-59
2022/11/16 14:38:09;;;;;;;24.57;17.07;;;;;;;14.29;51.61;100520.95;1416752;100;21170;-57
2022/11/16 14:40:47;;;;;;;24.30;16.52;;;;;;;14.26;51.64;100526.74;1396237;102;21149;-57
2022/11/16 14:43:26;;;;;;;24.10;16.17;;;;;;;14.21;51.69;100525.61;1399266;102;21157;-57
2022/11/16 14:46:07;;;;;;;25.43;16.35;;;;;;;14.17;51.64;100525.34;1452465;96;21130;-58
2022/11/16 14:48:34;;;;;;;22.87;16.10;;;;;;;14.13;51.75;100526.38;1456553;98;21150;-57
2022/11/16 14:51:16;;;;;;;24.92;17.07;;;;;;;14.14;51.77;100522.83;1455912;98;21153;-57
2022/11/16 14:53:49;;;;;;;24.20;15.90;;;;;;;14.14;51.75;100525.45;1512599;90;21608;-57
2022/11/16 14:56:17;;;;;;;20.10;15.23;;;;;;;14.16;51.64;100533.22;1561358;90;21107;-57
2022/11/16 14:58:57;;;;;;;25.92;17.67;;;;;;;14.14;51.60;100525.45;1565593;91;21105;-57
2022/11/16 15:01:34;;;;;;;23.67;17.50;;;;;;;14.13;51.49;100523.76;1567983;91;21120;-57
2022/11/16 15:04:07;;;;;;;24.75;17.12;;;;;;;14.10;51.44;100526.48;1565925;91;21175;-57
2022/11/16 15:06:51;;;;;;;25.65;17.45;;;;;;;14.07;51.44;100530.55;1553880;91;21083;-57
2022/11/16 15:13:21;;;;;;;19.77;15.23;;;;;;;14.00;51.40;100532.99;1556849;91;21220;-57
2022/11/16 15:15:49;;;;;;;22.45;16.90;;;;;;;13.95;51.39;100532.30;1531404;92;21122;-57
2022/11/16 15:18:19;;;;;;;25.72;17.25;;;;;;;13.93;51.37;100535.44;1525018;93;21105;-57
2022/11/16 15:20:50;;;;;;;21.05;15.78;;;;;;;13.93;51.34;100527.59;1564369;91;21088;-57
2022/11/16 15:23:18;;;;;;;21.60;16.27;;;;;;;13.93;51.29;100532.82;1549748;92;21098;-57
2022/11/16 15:25:54;;;;;;;24.87;17.20;;;;;;;13.92;51.29;100535.06;1562976;92;21151;-57
2022/11/16 15:28:26;;;;;;;23.35;15.72;;;;;;;13.91;51.19;100537.26;1563317;91;21138;-57
2022/11/16 15:30:56;;;;;;;19.55;14.98;;;;;;;13.88;51.16;100528.24;1580582;90;21049;-58
2022/11/16 15:33:27;;;;;;;23.12;15.55;;;;;;;13.86;51.26;100533.54;1578220;90;21060;-58
2022/11/16 15:35:54;;;;;;;20.23;14.73;;;;;;;13.86;51.30;100537.91;1578117;90;21100;-58
2022/11/16 15:38:28;;;;;;;19.65;14.47;;;;;;;13.84;51.29;100526.66;1571768;91;21105;-58
2022/11/16 15:41:04;;;;;;;18.42;14.40;;;;;;;13.86;51.30;100535.30;1517432;94;21078;-58
2022/11/16 15:43:47;;;;;;;19.65;14.73;;;;;;;13.86;51.19;100537.91;1517150;94;21078;-58
2022/11/16 15:46:13;;;;;;;18.75;14.38;;;;;;;13.87;51.06;100536.98;1506220;94;21095;-58
2022/11/16 15:48:41;;;;;;;17.90;14.18;;;;;;;13.88;50.89;100537.39;1514785;94;21138;-58
2022/11/16 15:51:13;;;;;;;18.95;14.70;;;;;;;13.87;50.87;100536.98;1511735;94;21577;-58
2022/11/16 15:53:47;;;;;;;18.02;13.35;;;;;;;13.87;50.85;100529.14;1582792;88;21047;-58
2022/11/16 15:56:29;;;;;;;20.08;14.15;;;;;;;13.84;50.84;100532.75;1544093;92;21097;-58
2022/11/16 15:59:00;;;;;;;20.43;14.63;;;;;;;13.82;50.84;100533.27;1545580;92;21146;-58
2022/11/16 16:01:28;;;;;;;19.27;14.53;;;;;;;13.80;50.87;100530.30;1503991;94;21139;-58
2022/11/16 16:03:59;;;;;;;17.77;13.83;;;;;;;13.77;50.91;100531.71;1496477;93;21093;-58
2022/11/16 16:06:55;;;;;;;17.15;13.18;;;;;;;13.78;50.88;100525.59;1487574;96;21100;-59
2022/11/16 16:12:49;;;;;;;17.85;13.30;;;;;;;13.77;50.99;100517.33;1488474;96;21230;-58
2022/11/16 16:17:57;;;;;;;19.35;15.13;;;;;;;13.79;51.10;100517.67;1479904;96;21150;-58
2022/11/16 16:20:26;;;;;;;19.07;14.75;;;;;;;13.81;51.03;100521.53;1484624;96;21094;-58
2022/11/16 16:22:53;;;;;;;19.75;15.48;;;;;;;13.80;50.98;100522.45;1484708;96;21573;-58
2022/11/16 16:25:32;;;;;;;20.35;15.63;;;;;;;13.81;50.98;100524.14;1478315;96;21162;-58
2022/11/16 16:27:58;;;;;;;21.73;16.15;;;;;;;13.80;51.02;100523.31;1478013;96;21580;-58
2022/11/16 16:30:27;;;;;;;20.77;15.08;;;;;;;13.80;51.05;100524.63;1483720;96;21117;-59
2022/11/16 16:32:53;;;;;;;22.40;14.58;;;;;;;13.79;51.05;100518.13;1484194;96;21624;-58
2022/11/16 16:35:22;;;;;;;18.17;14.20;;;;;;;13.80;51.02;100520.70;1480301;96;21158;-58
2022/11/16 16:37:53;;;;;;;20.65;14.98;;;;;;;13.82;50.97;100525.87;1514384;92;21073;-58
2022/11/16 16:40:20;;;;;;;22.20;14.87;;;;;;;13.83;50.95;100531.47;1504338;95;21158;-58
2022/11/16 16:42:49;;;;;;;21.90;15.58;;;;;;;13.85;50.97;100525.73;1531665;93;21117;-58
2022/11/16 16:45:32;;;;;;;21.40;15.43;;;;;;;13.86;50.92;100531.38;1532559;92;21140;-58
2022/11/16 16:48:00;;;;;;;20.52;14.30;;;;;;;13.85;50.87;100529.20;1528954;93;21097;-58
2022/11/16 16:50:27;;;;;;;19.45;15.50;;;;;;;13.85;50.89;100524.42;1533915;93;21557;-58
2022/11/16 16:52:53;;;;;;;20.17;15.28;;;;;;;13.84;50.94;100530.58;1532282;93;21154;-58
2022/11/16 16:55:20;;;;;;;20.10;14.98;;;;;;;13.79;51.10;100528.58;1528190;93;21146;-58
2022/11/16 16:57:47;;;;;;;18.30;14.85;;;;;;;13.75;51.29;100528.30;1555493;91;21042;-59
2022/11/16 17:00:16;;;;;;;26.17;17.07;;;;;;;13.73;51.38;100527.52;1556753;91;21047;-58
2022/11/16 17:02:44;;;;;;;22.20;16.45;;;;;;;13.72;51.46;100529.74;1557463;91;21058;-58
2022/11/16 17:05:11;;;;;;;22.42;16.02;;;;;;;13.72;51.54;100534.98;1536688;91;21143;-58
2022/11/16 17:07:37;;;;;;;24.95;16.52;;;;;;;13.74;51.56;100534.46;1535923;92;21106;-58
2022/11/16 17:10:05;;;;;;;20.92;15.72;;;;;;;13.75;51.65;100527.00;1535790;92;21124;-58
2022/11/16 17:12:32;;;;;;;22.32;16.40;;;;;;;13.78;51.65;100532.13;1534576;92;21066;-58
2022/11/16 17:14:59;;;;;;;22.93;17.07;;;;;;;13.80;51.64;100535.53;1591040;86;21026;-58
2022/11/16 17:17:26;;;;;;;24.23;16.95;;;;;;;13.81;51.63;100523.70;1641420;83;21055;-58
2022/11/16 17:19:53;;;;;;;24.12;17.65;;;;;;;13.83;51.56;100534.95;1688926;83;21065;-58
2022/11/16 17:22:20;;;;;;;25.15;18.65;;;;;;;13.85;51.51;100527.90;1685171;84;21063;-58
2022/11/16 17:24:46;;;;;;;25.02;17.65;;;;;;;13.82;51.51;100518.02;1694302;83;21058;-58
2022/11/16 17:27:14;;;;;;;24.25;17.45;;;;;;;13.80;51.54;100522.45;1703602;83;21058;-58
2022/11/16 17:29:41;;;;;;;26.52;17.37;;;;;;;13.78;51.61;100511.20;1693082;83;21136;-58
2022/11/16 17:32:07;;;;;;;23.62;16.02;;;;;;;13.78;51.75;100517.30;1700618;83;21474;-58
2022/11/16 17:34:34;;;;;;;24.30;16.75;;;;;;;13.79;51.69;100521.59;1700219;83;21054;-58
2022/11/16 17:37:01;;;;;;;24.50;17.23;;;;;;;13.81;51.73;100521.53;1717361;80;21022;-59
2022/11/16 17:39:28;;;;;;;22.45;15.78;;;;;;;13.82;51.70;100515.41;1767735;80;21108;-58
2022/11/16 17:41:55;;;;;;;22.75;16.73;;;;;;;13.84;51.58;100521.42;1762886;80;21010;-59
2022/11/16 17:44:22;;;;;;;22.05;17.32;;;;;;;13.85;51.53;100525.73;1773124;80;21099;-59
2022/11/16 17:46:48;;;;;;;25.12;17.65;;;;;;;13.85;51.54;100523.11;1769910;80;21070;-58
2022/11/16 17:49:15;;;;;;;25.82;17.57;;;;;;;13.83;51.45;100519.70;1766454;80;21487;-58
2022/11/16 17:51:42;;;;;;;24.52;17.10;;;;;;;13.84;51.40;100521.42;1748338;81;21051;-58
2022/11/16 17:54:09;;;;;;;26.62;17.82;;;;;;;13.83;51.37;100518.40;1736197;80;21455;-58
2022/11/16 17:56:37;;;;;;;22.30;17.48;;;;;;;13.80;51.34;100519.39;1771557;80;21034;-58
2022/11/16 17:59:04;;;;;;;24.45;17.10;;;;;;;13.79;51.39;100522.05;1746446;80;20995;-58
2022/11/16 18:01:31;;;;;;;25.55;18.15;;;;;;;13.78;51.38;100520.36;1759077;80;21030;-58
2022/11/16 18:03:59;;;;;;;26.70;17.70;;;;;;;13.76;51.35;100523.48;1759236;80;21082;-58
2022/11/16 18:06:28;;;;;;;26.37;17.42;;;;;;;13.72;51.48;100520.11;1757681;80;21014;-59
2022/11/16 18:08:56;;;;;;;26.77;18.35;;;;;;;13.73;51.52;100519.66;1762321;80;21030;-58
2022/11/16 18:11:25;;;;;;;22.37;16.70;;;;;;;13.75;51.54;100519.16;1768484;80;21545;-58
2022/11/16 18:13:56;;;;;;;24.40;17.92;;;;;;;13.76;51.59;100510.41;1756471;80;21082;-58
2022/11/16 18:16:25;;;;;;;23.50;16.95;;;;;;;13.77;51.57;100502.50;1677175;83;21060;-58
2022/11/16 18:18:58;;;;;;;23.92;16.48;;;;;;;13.77;51.59;100497.72;1704416;83;21532;-58
2022/11/16 18:21:25;;;;;;;25.15;17.52;;;;;;;13.76;51.50;100499.95;1709660;83;20998;-58
2022/11/16 18:23:52;;;;;;;25.00;18.42;;;;;;;13.74;51.48;100505.70;1704482;83;21628;-58
2022/11/16 18:26:20;;;;;;;25.75;17.12;;;;;;;13.73;51.53;100510.06;1711581;83;21038;-58
2022/11/16 18:28:48;;;;;;;23.05;17.27;;;;;;;13.74;51.52;100509.17;1703503;83;21064;-58
2022/11/16 18:31:16;;;;;;;24.07;16.60;;;;;;;13.75;51.54;100521.77;1686006;83;21033;-58
2022/11/16 18:33:43;;;;;;;25.57;17.87;;;;;;;13.77;51.53;100518.19;1690281;83;21509;-59
2022/11/16 18:36:10;;;;;;;26.10;18.25;;;;;;;13.81;51.50;100518.91;1677203;83;21110;-58
2022/11/16 18:38:37;;;;;;;24.70;17.35;;;;;;;13.81;51.53;100519.77;1680381;82;21113;-58
2022/11/16 18:41:19;;;;;;;23.75;17.77;;;;;;;13.81;51.49;100511.93;1701616;83;21077;-58
2022/11/16 18:43:49;;;;;;;25.65;18.00;;;;;;;13.82;51.43;100512.79;1713730;83;21608;-58
2022/11/16 18:46:19;;;;;;;26.20;18.07;;;;;;;13.81;51.35;100513.69;1698062;83;21069;-58
2022/11/16 18:48:47;;;;;;;28.53;18.87;;;;;;;13.80;51.36;100504.16;1643902;85;21103;-58
2022/11/16 18:51:14;;;;;;;26.23;18.30;;;;;;;13.77;51.44;100501.19;1646790;85;21610;-58
2022/11/16 18:53:42;;;;;;;25.25;17.80;;;;;;;13.77;51.54;100501.64;1649098;85;21120;-58
2022/11/16 18:56:10;;;;;;;27.50;18.65;;;;;;;13.77;51.56;100510.80;1658054;84;21054;-58
2022/11/16 18:58:38;;;;;;;27.10;18.30;;;;;;;13.78;51.61;100517.74;1662434;85;21074;-59
2022/11/16 19:01:06;;;;;;;24.82;17.70;;;;;;;13.79;51.63;100518.13;1626235;86;21033;-58
2022/11/16 19:03:33;;;;;;;27.00;18.25;;;;;;;13.80;51.64;100517.23;1615322;87;21047;-58
2022/11/16 19:06:07;;;;;;;25.23;16.90;;;;;;;13.82;51.53;100510.17;1660232;85;21145;-58
2022/11/16 19:08:37;;;;;;;27.70;18.00;;;;;;;13.84;51.46;100512.27;1649530;85;21568;-59
2022/11/16 19:11:10;;;;;;;29.48;19.23;;;;;;;13.84;51.35;100509.66;1630642;86;21061;-58
2022/11/16 19:13:39;;;;;;;26.30;17.80;;;;;;;13.81;51.38;100514.55;1715078;81;20994;-60
2022/11/16 19:16:08;;;;;;;24.10;17.42;;;;;;;13.80;51.38;100527.69;1734983;82;21064;-58
2022/11/16 19:18:36;;;;;;;25.80;19.23;;;;;;;13.78;51.42;100529.52;1675101;84;21038;-58
2022/11/16 19:21:12;;;;;;;26.82;19.20;;;;;;;13.74;51.48;100523.55;1663623;85;21181;-58
2022/11/16 19:23:43;;;;;;;27.32;18.62;;;;;;;13.73;51.53;100520.97;1612170;88;21539;-58
2022/11/16 19:26:11;;;;;;;25.97;18.57;;;;;;;13.72;51.60;100521.91;1597021;88;21039;-58
2022/11/16 19:28:40;;;;;;;27.52;19.17;;;;;;;13.73;51.66;100536.66;1582756;89;21545;-59
2022/11/16 19:31:15;;;;;;;25.75;18.32;;;;;;;13.74;51.61;100531.40;1578768;89;21146;-58
2022/11/16 19:33:43;;;;;;;27.52;18.62;;;;;;;13.75;51.61;100529.61;1582133;89;21078;-60
2022/11/16 19:36:13;;;;;;;30.10;20.25;;;;;;;13.76;51.61;100526.10;1566078;91;21077;-58
2022/11/16 19:38:41;;;;;;;30.17;20.77;;;;;;;13.77;51.51;100516.88;1516119;93;21198;-59
2022/11/16 19:41:09;;;;;;;27.73;19.60;;;;;;;13.77;51.44;100514.72;1531216;92;21635;-59
2022/11/16 19:43:36;;;;;;;27.27;19.05;;;;;;;13.75;51.51;100513.92;1554156;90;21125;-58
2022/11/16 19:46:11;;;;;;;32.95;20.48;;;;;;;13.73;51.53;100522.28;1562718;90;21154;-58
2022/11/16 19:48:38;;;;;;;32.53;20.37;;;;;;;13.72;51.60;100521.91;1547166;90;21050;-58
2022/11/16 19:51:11;;;;;;;27.85;19.48;;;;;;;13.70;51.63;100524.55;1544954;90;21562;-59
2022/11/16 19:53:37;;;;;;;30.27;19.82;;;;;;;13.70;51.70;100521.11;1550724;90;21050;-58
2022/11/16 19:56:06;;;;;;;31.30;21.25;;;;;;;13.70;51.75;100519.80;1553368;90;21592;-58
2022/11/16 19:58:35;;;;;;;32.05;21.85;;;;;;;13.71;51.73;100512.34;1558475;89;21609;-58
2022/11/16 20:01:24;;;;;;;35.30;22.30;;;;;;;13.72;51.81;100516.67;1564490;90;21086;-58
2022/11/16 20:03:51;;;;;;;38.63;22.35;;;;;;;13.74;51.75;100514.84;1561285;90;21524;-59
2022/11/16 20:06:22;;;;;;;38.38;22.80;;;;;;;13.75;51.72;100510.00;1562461;90;21076;-59
2022/11/16 20:08:51;;;;;;;;;;;;;;;13.76;51.77;100521.73;1561761;91;21097;-58
2022/11/16 20:11:25;;;;;;;31.90;20.52;;;;;;;13.76;51.68;100526.10;1554788;90;20115;-58
2022/11/16 20:13:53;;;;;;;36.80;21.87;;;;;;;13.75;51.69;100532.23;1558229;90;21115;-58
2022/11/16 20:16:23;;;;;;;37.48;22.20;;;;;;;13.72;51.69;100524.52;1546664;90;21152;-58
2022/11/16 20:18:50;;;;;;;33.23;20.75;;;;;;;13.70;51.79;100518.49;1564500;90;21017;-58
2022/11/16 20:21:25;;;;;;;38.78;22.70;;;;;;;13.68;51.85;100521.63;1583888;88;21105;-58
2022/11/16 20:23:52;;;;;;;36.08;20.25;;;;;;;13.67;51.85;100505.52;1615280;87;21082;-58
2022/11/16 20:26:19;;;;;;;30.92;19.80;;;;;;;13.67;51.94;100504.21;1598598;88;21109;-58
2022/11/16 20:28:49;;;;;;;37.40;22.02;;;;;;;13.65;51.95;100494.27;1609534;87;21093;-58
2022/11/16 20:31:18;;;;;;;34.80;21.25;;;;;;;13.66;51.97;100490.76;1626049;86;21051;-58
2022/11/16 20:33:54;;;;;;;32.13;20.70;;;;;;;13.66;51.96;100487.67;1648036;85;21588;-59
2022/11/16 20:36:22;;;;;;;36.40;22.17;;;;;;;13.65;51.93;100483.81;1741866;80;21507;-58
2022/11/16 20:38:49;;;;;;;37.33;22.13;;;;;;;13.65;51.98;100491.66;1762384;80;21064;-58
2022/11/16 20:41:23;;;;;;;33.38;21.93;;;;;;;13.65;51.91;100502.11;1753078;80;21071;-58
2022/11/16 20:43:52;;;;;;;33.05;21.40;;;;;;;13.70;51.74;100508.03;1720944;81;21034;-58
2022/11/16 20:46:21;;;;;;;33.55;21.60;;;;;;;13.72;51.75;100508.83;1718289;82;21062;-58
2022/11/16 20:48:48;;;;;;;32.80;20.72;;;;;;;13.71;51.83;100499.27;1722273;82;21006;-58
2022/11/16 20:51:17;;;;;;;35.55;21.55;;;;;;;13.71;51.83;100499.27;1728732;81;21055;-58
2022/11/16 20:53:46;;;;;;;33.80;21.10;;;;;;;13.69;51.83;100491.48;1693829;83;21094;-58
2022/11/16 20:56:13;;;;;;;37.45;22.22;;;;;;;13.69;51.79;100494.55;1651308;85;21084;-58
2022/11/16 20:58:42;;;;;;;34.67;21.17;;;;;;;13.68;51.83;100509.86;1657017;84;21077;-58
2022/11/16 21:01:12;;;;;;;36.17;22.05;;;;;;;13.68;51.91;100509.86;1691730;83;21550;-58
2022/11/16 21:03:39;;;;;;;35.70;21.52;;;;;;;13.69;51.94;100515.47;1701015;83;21080;-58
2022/11/16 21:06:07;;;;;;;31.73;21.25;;;;;;;13.72;51.91;100516.19;1711682;84;21507;-58
2022/11/16 21:08:36;;;;;;;34.65;22.37;;;;;;;13.73;51.88;100513.12;1707837;83;21040;-58
2022/11/16 21:11:11;;;;;;;36.95;22.00;;;;;;;13.74;51.88;100516.16;1689949;83;21093;-58
2022/11/16 21:16:23;;;;;;;33.60;22.05;;;;;;;13.74;51.70;100509.62;1684501;84;21534;-58
2022/11/16 21:18:49;;;;;;;33.63;21.52;;;;;;;13.75;51.63;100504.32;1687859;83;21097;-58
2022/11/16 21:21:16;;;;;;;32.80;20.85;;;;;;;13.73;51.65;100502.22;1687480;83;21067;-58
2022/11/16 21:23:50;;;;;;;35.43;21.85;;;;;;;13.72;51.78;100500.98;1693987;84;21004;-58
2022/11/16 21:26:15;;;;;;;34.38;21.65;;;;;;;13.71;51.89;100500.12;1687792;84;21475;-58
2022/11/16 21:28:44;;;;;;;32.93;20.65;;;;;;;13.73;51.77;100503.53;1688564;85;21039;-58
2022/11/16 21:31:18;;;;;;;33.98;22.13;;;;;;;13.72;51.81;100504.42;1688972;84;21538;-59
2022/11/16 21:33:46;;;;;;;39.42;21.90;;;;;;;13.73;51.87;100505.28;1623416;88;21106;-59
2022/11/16 21:36:16;;;;;;;36.93;21.75;;;;;;;13.74;51.85;100504.39;1655870;86;21086;-58
2022/11/16 21:38:42;;;;;;;36.45;23.25;;;;;;;13.77;51.70;100508.17;1630220;86;21574;-58
2022/11/16 21:41:10;;;;;;;35.45;22.87;;;;;;;13.79;51.63;100500.67;1629861;86;21149;-58
2022/11/16 21:43:39;;;;;;;34.50;22.60;;;;;;;13.80;51.58;100502.39;1625879;87;21576;-58
